KCSV/CSV METAR and TAF weather

Enter ICAO airport designator
Station Type Date Time Source
KCSV METAR 2019/12/14 05:53 UTC NOAA

KCSV 140553Z AUTO 26008KT 3SM BR OVC004 06/05 A2969 RMK AO2 SLP054 60014 T00610050 10061 20061 400670028 58020


Station Type Date Time Source
KCSV Decoded METAR 2019/12/14 05:53 UTC NOAA

CROSSVILLE MEMORIAL AIRPORT , TN, United States (KCSV) 35-57N 85-05W 570M
Dec 14, 2019 - 12:53 AM EST / 2019.12.14 0553 UTC
Wind: from the W (260 degrees) at 9 MPH (8 KT):0
Visibility: 3 mile(s):0
Sky conditions: overcast
Weather: mist
Temperature: 43.0 F (6.1 C)
Dew Point: 41.0 F (5.0 C)
Relative Humidity: 92%
Pressure (altimeter): 29.69 in. Hg (1005 hPa)
Pressure tendency: 0.06 inches (2.0 hPa) lower than three hours ago
ob: KCSV 140553Z AUTO 26008KT 3SM BR OVC004 06/05 A2969 RMK AO2 SLP054 60014 T00610050 10061 20061 400670028 58020
cycle: 6

Station Type Date Time Source
KCSV TAF 2019/12/14 06:22 UTC NOAA

TAF KCSV 140520Z 1406/1506 26004KT 4SM -RA BR OVC005
FM140800 30006KT 4SM BR VCSH OVC004
FM141400 29005KT 6SM -RA BR OVC005
FM141800 27006KT P6SM OVC015

Example: see airport list